createdAt,value
2018-07-12T00:00:53.842Z,100077.58
2018-07-12T00:03:20.192Z,100081.11
2018-07-12T00:05:46.454Z,100083.13
2018-07-12T00:08:12.799Z,100076.98
2018-07-12T00:10:39.137Z,100077.08
2018-07-12T00:13:05.402Z,100076.09
2018-07-12T00:15:32.157Z,100068.25
2018-07-12T00:17:58.474Z,100066.10
2018-07-12T00:20:25.233Z,100067.91
2018-07-12T00:22:51.980Z,100075.93
2018-07-12T00:25:18.310Z,100063.14
2018-07-12T00:27:44.586Z,100065.21
2018-07-12T00:30:11.031Z,100067.64
2018-07-12T00:32:37.309Z,100070.89
2018-07-12T00:35:03.665Z,100065.73
2018-07-12T00:37:30.013Z,100058.37
2018-07-12T00:39:56.329Z,100065.51
2018-07-12T00:42:22.666Z,100063.70
2018-07-12T00:44:48.994Z,100064.36
2018-07-12T00:47:15.406Z,100064.86
2018-07-12T00:49:41.781Z,100067.44
2018-07-12T00:52:08.609Z,100071.53
2018-07-12T00:54:34.881Z,100074.55
2018-07-12T00:57:01.159Z,100070.86
2018-07-12T00:59:27.497Z,100071.64
2018-07-12T01:01:53.827Z,100065.62
2018-07-12T01:04:20.103Z,100067.58
2018-07-12T01:06:46.382Z,100069.40
2018-07-12T01:09:12.645Z,100067.75
2018-07-12T01:11:38.939Z,100065.31
2018-07-12T01:14:05.214Z,100074.47
2018-07-12T01:16:31.502Z,100066.93
2018-07-12T01:18:57.770Z,100064.95
2018-07-12T01:21:24.074Z,100069.89
2018-07-12T01:23:50.401Z,100069.28
2018-07-12T01:26:16.665Z,100067.21
2018-07-12T01:28:42.960Z,100064.63
2018-07-12T01:31:09.294Z,100067.78
2018-07-12T01:33:35.605Z,100063.75
2018-07-12T01:36:02.014Z,100067.59
2018-07-12T01:38:28.233Z,100064.50
2018-07-12T01:40:54.489Z,100064.94
2018-07-12T01:43:20.851Z,100062.88
2018-07-12T01:45:47.127Z,100063.33
2018-07-12T01:48:13.510Z,100060.86
2018-07-12T01:50:39.790Z,100060.19
2018-07-12T01:53:06.072Z,100057.91
2018-07-12T01:55:32.527Z,100062.56
2018-07-12T01:57:58.906Z,100061.12
2018-07-12T02:00:25.201Z,100064.76
2018-07-12T02:02:51.491Z,100064.20
2018-07-12T02:05:17.838Z,100063.36
2018-07-12T02:07:44.101Z,100059.64
2018-07-12T02:10:33.434Z,100064.23
2018-07-12T02:12:59.982Z,100064.97
2018-07-12T02:15:26.230Z,100062.07
2018-07-12T02:17:52.579Z,100061.48
2018-07-12T02:20:18.946Z,100057.56
2018-07-12T02:22:45.288Z,100059.88
2018-07-12T02:25:11.630Z,100057.58
2018-07-12T02:27:37.914Z,100062.53
2018-07-12T02:30:04.676Z,100057.25
2018-07-12T02:32:31.018Z,100056.85
2018-07-12T02:34:57.406Z,100056.64
2018-07-12T02:37:23.682Z,100049.84
2018-07-12T02:39:49.959Z,100050.30
2018-07-12T02:42:16.281Z,100055.37
2018-07-12T02:44:42.614Z,100047.58
2018-07-12T02:47:08.911Z,100049.67
2018-07-12T02:49:35.234Z,100047.65
2018-07-12T02:52:01.533Z,100045.14
2018-07-12T02:54:27.916Z,100055.16
2018-07-12T02:56:54.222Z,100050.34
2018-07-12T02:59:20.559Z,100045.43
2018-07-12T03:01:46.886Z,100043.53
2018-07-12T03:04:13.250Z,100048.53
2018-07-12T03:06:39.575Z,100050.16
2018-07-12T03:09:06.737Z,100046.81
2018-07-12T03:11:33.105Z,100048.41
2018-07-12T03:13:59.470Z,100054.10
2018-07-12T03:16:25.729Z,100054.51
2018-07-12T03:18:52.091Z,100051.63
2018-07-12T03:21:18.942Z,100051.34
2018-07-12T03:23:45.210Z,100057.54
2018-07-12T03:26:11.536Z,100059.73
2018-07-12T03:28:37.814Z,100058.02
2018-07-12T03:31:04.206Z,100053.88
2018-07-12T03:33:30.697Z,100063.39
2018-07-12T03:35:56.965Z,100056.33
2018-07-12T03:38:23.298Z,100063.27
2018-07-12T03:40:49.566Z,100065.62
2018-07-12T03:43:15.851Z,100064.99
2018-07-12T03:45:42.206Z,100058.89
2018-07-12T03:48:08.498Z,100058.98
2018-07-12T03:50:34.930Z,100066.37
2018-07-12T03:53:01.285Z,100064.55
2018-07-12T03:55:28.124Z,100064.63
2018-07-12T03:57:54.382Z,100069.39
2018-07-12T04:00:20.738Z,100059.17
2018-07-12T04:02:47.073Z,100061.96
2018-07-12T04:05:13.331Z,100070.70
2018-07-12T04:07:39.841Z,100065.56
2018-07-12T04:10:33.223Z,100070.93
2018-07-12T04:12:59.603Z,100074.34
2018-07-12T04:15:25.859Z,100075.08
2018-07-12T04:17:52.128Z,100071.77
2018-07-12T04:20:18.417Z,100067.44
2018-07-12T04:22:44.701Z,100066.27
2018-07-12T04:25:10.959Z,100063.88
2018-07-12T04:27:37.259Z,100072.17
2018-07-12T04:30:03.536Z,100065.33
2018-07-12T04:32:29.850Z,100070.89
2018-07-12T04:34:56.206Z,100071.33
2018-07-12T04:37:22.449Z,100078.03
2018-07-12T04:39:48.730Z,100073.46
2018-07-12T04:42:14.989Z,100075.66
2018-07-12T04:44:41.751Z,100072.14
2018-07-12T04:47:08.022Z,100076.55
2018-07-12T04:49:34.279Z,100068.44
2018-07-12T04:52:00.735Z,100067.87
2018-07-12T04:54:27.672Z,100068.61
2018-07-12T04:56:53.939Z,100065.94
2018-07-12T04:59:20.854Z,100069.26
2018-07-12T05:01:47.577Z,100067.63
2018-07-12T05:04:13.931Z,100071.27
2018-07-12T05:06:40.275Z,100070.52
2018-07-12T05:09:07.922Z,100077.55
2018-07-12T05:11:34.234Z,100078.23
2018-07-12T05:14:00.523Z,100085.63
2018-07-12T05:16:26.874Z,100078.23
2018-07-12T05:18:53.214Z,100079.91
2018-07-12T05:21:19.491Z,100083.17
2018-07-12T05:23:45.785Z,100086.80
2018-07-12T05:26:12.103Z,100080.32
2018-07-12T05:28:38.915Z,100078.55
2018-07-12T05:31:06.020Z,100082.20
2018-07-12T05:33:32.327Z,100072.41
2018-07-12T05:36:00.042Z,100075.20
2018-07-12T05:38:27.799Z,100081.92
2018-07-12T05:40:55.437Z,100079.61
2018-07-12T05:43:23.083Z,100077.66
2018-07-12T05:45:51.070Z,100081.06
2018-07-12T05:48:18.742Z,100088.46
2018-07-12T05:50:47.447Z,100085.53
2018-07-12T05:53:16.209Z,100080.23
2018-07-12T05:55:43.894Z,100084.42
2018-07-12T05:58:11.553Z,100088.46
2018-07-12T06:00:39.454Z,100089.01
2018-07-12T06:03:07.135Z,100096.09
2018-07-12T06:05:34.815Z,100105.27
2018-07-12T06:08:02.565Z,100103.07
2018-07-12T06:10:30.184Z,100110.94
2018-07-12T06:13:00.479Z,100103.22
2018-07-12T06:15:28.817Z,100105.77
2018-07-12T06:17:56.462Z,100109.45
2018-07-12T06:20:24.090Z,100111.07
2018-07-12T06:22:52.301Z,100112.07
2018-07-12T06:25:19.945Z,100116.31
2018-07-12T06:27:47.604Z,100119.20
2018-07-12T06:30:15.337Z,100113.20
2018-07-12T06:32:43.043Z,100114.42
2018-07-12T06:35:10.705Z,100112.39
2018-07-12T06:37:38.324Z,100110.08
2018-07-12T06:40:05.972Z,100113.65
2018-07-12T06:42:33.662Z,100117.67
2018-07-12T06:45:01.219Z,100115.74
2018-07-12T06:47:28.883Z,100118.92
2018-07-12T06:49:56.506Z,100119.09
2018-07-12T06:52:24.210Z,100113.02
2018-07-12T06:54:51.833Z,100119.30
2018-07-12T06:57:19.550Z,100110.66
2018-07-12T06:59:47.196Z,100118.13
2018-07-12T07:02:14.877Z,100122.78
2018-07-12T07:04:42.555Z,100127.20
2018-07-12T07:07:10.932Z,100123.19
2018-07-12T07:09:38.606Z,100123.57
2018-07-12T07:12:06.450Z,100130.61
2018-07-12T07:14:34.090Z,100136.50
2018-07-12T07:17:01.768Z,100127.99
2018-07-12T07:19:29.465Z,100129.14
2018-07-12T07:21:57.162Z,100124.05
2018-07-12T07:24:25.921Z,100121.82
2018-07-12T07:26:53.648Z,100117.58
2018-07-12T07:29:22.123Z,100118.97
2018-07-12T07:31:49.734Z,100118.77
2018-07-12T07:34:17.522Z,100115.02
2018-07-12T07:36:45.151Z,100117.98
2018-07-12T07:39:12.774Z,100113.17
2018-07-12T07:41:40.580Z,100114.64
2018-07-12T07:44:08.374Z,100115.31
2018-07-12T07:46:35.975Z,100114.10
2018-07-12T07:49:03.674Z,100114.66
2018-07-12T07:51:31.282Z,100120.09
2018-07-12T07:53:58.942Z,100120.64
2018-07-12T07:56:26.625Z,100121.14
2018-07-12T07:58:54.223Z,100118.94
2018-07-12T08:01:21.959Z,100123.23
2018-07-12T08:03:49.602Z,100124.25
2018-07-12T08:06:17.250Z,100124.97
2018-07-12T08:08:44.947Z,100126.67
2018-07-12T08:11:12.559Z,100123.19
2018-07-12T08:13:40.283Z,100125.89
2018-07-12T08:16:07.925Z,100124.91
2018-07-12T08:18:35.506Z,100122.67
2018-07-12T08:21:04.363Z,100123.36
2018-07-12T08:23:32.179Z,100121.41
2018-07-12T08:25:59.802Z,100123.21
2018-07-12T08:28:29.123Z,100123.88
2018-07-12T08:30:56.725Z,100123.93
2018-07-12T08:33:24.717Z,100124.36
2018-07-12T08:35:52.462Z,100116.76
2018-07-12T08:38:20.298Z,100116.06
2018-07-12T08:40:48.033Z,100119.05
2018-07-12T08:43:15.740Z,100112.05
2018-07-12T08:45:43.975Z,100116.22
2018-07-12T08:48:11.662Z,100125.17
2018-07-12T08:50:39.350Z,100112.65
2018-07-12T08:53:07.484Z,100118.61
2018-07-12T08:55:35.131Z,100115.81
2018-07-12T08:58:02.797Z,100113.45
2018-07-12T09:00:30.463Z,100115.52
2018-07-12T09:02:58.085Z,100119.97
2018-07-12T09:05:25.758Z,100114.69
2018-07-12T09:07:53.534Z,100116.90
2018-07-12T09:10:34.077Z,100119.89
2018-07-12T09:13:01.817Z,100118.00
2018-07-12T09:15:29.425Z,100119.09
2018-07-12T09:17:57.106Z,100114.55
2018-07-12T09:20:24.742Z,100113.22
2018-07-12T09:22:52.418Z,100115.34
2018-07-12T09:25:20.208Z,100114.30
2018-07-12T09:27:47.800Z,100116.16
2018-07-12T09:30:15.426Z,100120.47
2018-07-12T09:32:43.058Z,100121.53
2018-07-12T09:35:10.670Z,100118.09
2018-07-12T09:37:38.487Z,100116.48
2018-07-12T09:40:06.165Z,100117.54
2018-07-12T09:42:34.075Z,100126.13
2018-07-12T09:45:01.846Z,100124.25
2018-07-12T09:47:29.489Z,100133.13
2018-07-12T09:49:57.143Z,100126.11
2018-07-12T09:52:30.813Z,100125.05
2018-07-12T09:54:58.510Z,100128.80
2018-07-12T09:57:43.686Z,100126.62
2018-07-12T10:00:11.542Z,100127.19
2018-07-12T10:02:44.942Z,100132.28
2018-07-12T10:05:18.269Z,100126.38
2018-07-12T10:07:54.500Z,100129.34
2018-07-12T10:10:38.676Z,100126.38
2018-07-12T10:13:32.145Z,100127.20
2018-07-12T10:16:02.768Z,100120.45
2018-07-12T10:18:31.071Z,100119.56
2018-07-12T10:20:59.046Z,100120.60
2018-07-12T10:23:26.849Z,100126.98
2018-07-12T10:25:54.931Z,100124.29
2018-07-12T10:28:22.642Z,100119.90
2018-07-12T10:30:50.313Z,100119.41
2018-07-12T10:33:18.457Z,100112.67
2018-07-12T10:35:46.291Z,100115.61
2018-07-12T10:38:13.921Z,100114.23
2018-07-12T10:40:41.934Z,100120.86
2018-07-12T10:43:09.592Z,100115.90
2018-07-12T10:45:37.253Z,100120.78
2018-07-12T10:48:05.174Z,100122.08
2018-07-12T10:50:32.876Z,100123.19
2018-07-12T10:53:00.595Z,100120.23
2018-07-12T10:55:28.262Z,100112.16
2018-07-12T10:57:55.882Z,100116.43
2018-07-12T11:00:23.602Z,100107.56
2018-07-12T11:02:51.177Z,100108.59
2018-07-12T11:05:19.074Z,100110.97
2018-07-12T11:07:46.683Z,100108.33
2018-07-12T11:10:33.890Z,100104.12
2018-07-12T11:13:13.073Z,100106.22
2018-07-12T11:15:40.823Z,100104.19
2018-07-12T11:18:09.169Z,100103.53
2018-07-12T11:20:36.952Z,100098.17
2018-07-12T11:23:04.750Z,100099.02
2018-07-12T11:25:32.407Z,100098.48
2018-07-12T11:28:00.399Z,100096.83
2018-07-12T11:30:28.055Z,100098.47
2018-07-12T11:32:55.680Z,100093.32
2018-07-12T11:35:23.414Z,100092.77
2018-07-12T11:37:51.125Z,100093.72
2018-07-12T11:40:18.794Z,100085.25
2018-07-12T11:42:46.495Z,100089.80
2018-07-12T11:45:14.154Z,100091.51
2018-07-12T11:47:41.782Z,100080.79
2018-07-12T11:50:09.390Z,100087.06
2018-07-12T11:52:37.012Z,100085.53
2018-07-12T11:55:04.780Z,100084.03
2018-07-12T11:57:32.445Z,100082.62
2018-07-12T12:00:06.805Z,100089.77
2018-07-12T12:02:34.503Z,100084.23
2018-07-12T12:05:02.259Z,100083.05
2018-07-12T12:07:30.389Z,100085.05
2018-07-12T12:09:58.090Z,100083.45
2018-07-12T12:12:25.949Z,100081.45
2018-07-12T12:14:53.665Z,100084.27
2018-07-12T12:17:21.304Z,100085.94
2018-07-12T12:19:49.223Z,100074.66
2018-07-12T12:22:16.948Z,100068.38
2018-07-12T12:24:44.591Z,100070.89
2018-07-12T12:27:13.230Z,100072.95
2018-07-12T12:29:40.954Z,100063.83
2018-07-12T12:32:08.569Z,100070.66
2018-07-12T12:34:36.265Z,100064.75
2018-07-12T12:37:03.971Z,100063.41
2018-07-12T12:39:31.602Z,100066.22
2018-07-12T12:41:59.356Z,100066.84
2018-07-12T12:44:27.119Z,100066.10
2018-07-12T12:46:54.773Z,100065.34
2018-07-12T12:49:22.422Z,100070.06
2018-07-12T12:51:50.060Z,100064.66
2018-07-12T12:54:17.788Z,100064.48
2018-07-12T12:56:45.590Z,100065.03
2018-07-12T12:59:13.250Z,100066.03
2018-07-12T13:01:40.914Z,100065.73
2018-07-12T13:04:09.545Z,100061.52
2018-07-12T13:06:37.194Z,100070.06
2018-07-12T13:09:06.342Z,100059.75
2018-07-12T13:11:34.057Z,100059.21
2018-07-12T13:14:01.794Z,100052.95
2018-07-12T13:16:29.530Z,100061.84
2018-07-12T13:18:57.178Z,100063.23
2018-07-12T13:21:24.787Z,100065.98
2018-07-12T13:23:52.537Z,100067.23
2018-07-12T13:26:20.182Z,100062.63
2018-07-12T13:28:47.819Z,100059.35
2018-07-12T13:31:15.550Z,100063.09
2018-07-12T13:33:43.266Z,100068.75
2018-07-12T13:36:10.972Z,100067.33
2018-07-12T13:38:38.568Z,100064.63
2018-07-12T13:41:06.418Z,100060.18
2018-07-12T13:43:34.058Z,100070.00
2018-07-12T13:46:01.770Z,100065.82
2018-07-12T13:48:29.382Z,100063.73
2018-07-12T13:50:57.125Z,100068.50
2018-07-12T13:53:24.839Z,100063.01
2018-07-12T13:55:52.531Z,100063.66
2018-07-12T13:58:20.198Z,100062.22
2018-07-12T14:00:47.801Z,100060.25
2018-07-12T14:03:15.510Z,100063.14
2018-07-12T14:05:43.530Z,100062.00
2018-07-12T14:08:11.233Z,100057.00
2018-07-12T14:10:39.171Z,100066.77
2018-07-12T14:13:06.819Z,100052.67
2018-07-12T14:15:34.526Z,100058.35
2018-07-12T14:18:02.230Z,100054.84
2018-07-12T14:20:29.858Z,100049.41
2018-07-12T14:22:57.523Z,100044.53
2018-07-12T14:25:25.146Z,100043.92
2018-07-12T14:27:52.839Z,100044.11
2018-07-12T14:30:20.443Z,100048.41
2018-07-12T14:32:48.053Z,100048.00
2018-07-12T14:35:15.730Z,100047.02
2018-07-12T14:37:43.354Z,100039.77
2018-07-12T14:40:10.995Z,100043.34
2018-07-12T14:42:38.622Z,100036.38
2018-07-12T14:45:06.291Z,100036.39
2018-07-12T14:47:34.007Z,100034.72
2018-07-12T14:50:01.722Z,100028.08
2018-07-12T14:52:29.384Z,100032.54
2018-07-12T14:54:57.110Z,100026.89
2018-07-12T14:57:24.727Z,100026.95
2018-07-12T14:59:52.357Z,100024.92
2018-07-12T15:02:20.061Z,100024.92
2018-07-12T15:04:47.679Z,100019.09
2018-07-12T15:07:15.360Z,100015.78
2018-07-12T15:09:43.026Z,100017.42
2018-07-12T15:12:10.714Z,100013.81
2018-07-12T15:14:38.362Z,100018.49
2018-07-12T15:17:06.071Z,100012.56
2018-07-12T15:19:33.802Z,100010.74
2018-07-12T15:22:01.435Z,100009.22
2018-07-12T15:24:29.270Z,100001.97
2018-07-12T15:26:56.902Z,100007.27
2018-07-12T15:29:24.541Z,100011.50
2018-07-12T15:31:54.838Z,100007.24
2018-07-12T15:34:22.610Z,100002.30
2018-07-12T15:36:50.738Z,100002.39
2018-07-12T15:39:18.508Z,99993.30
2018-07-12T15:41:46.200Z,99998.81
2018-07-12T15:44:13.976Z,99995.61
2018-07-12T15:46:41.650Z,99997.66
2018-07-12T15:49:09.290Z,99987.38
2018-07-12T15:51:36.986Z,99994.55
2018-07-12T15:54:04.650Z,99996.50
2018-07-12T15:56:32.313Z,99990.41
2018-07-12T15:58:59.984Z,100002.66
2018-07-12T16:01:27.634Z,99996.59
2018-07-12T16:03:55.294Z,99999.75
2018-07-12T16:06:23.122Z,100000.16
2018-07-12T16:08:51.061Z,100001.68
2018-07-12T16:11:18.842Z,99993.67
2018-07-12T16:13:46.457Z,100003.53
2018-07-12T16:16:14.233Z,100002.89
2018-07-12T16:18:41.830Z,100012.57
2018-07-12T16:21:09.451Z,100004.95
2018-07-12T16:23:37.059Z,100007.19
2018-07-12T16:26:04.793Z,100008.05
2018-07-12T16:28:32.402Z,100006.73
2018-07-12T16:31:00.266Z,100010.25
2018-07-12T16:33:27.903Z,100006.36
2018-07-12T16:35:55.659Z,100007.86
2018-07-12T16:38:23.462Z,100011.64
2018-07-12T16:40:51.122Z,100012.63
2018-07-12T16:43:18.810Z,100012.31
2018-07-12T16:45:46.541Z,100009.36
2018-07-12T16:48:14.804Z,100009.08
2018-07-12T16:50:42.547Z,100006.67
2018-07-12T16:53:10.174Z,100008.05
2018-07-12T16:55:37.854Z,100010.84
2018-07-12T16:58:05.599Z,100011.88
2018-07-12T17:00:33.263Z,100005.95
2018-07-12T17:03:01.064Z,100009.23
2018-07-12T17:05:28.750Z,100008.72
2018-07-12T17:07:56.458Z,100017.13
2018-07-12T17:10:33.934Z,100015.52
2018-07-12T17:13:01.633Z,100011.62
2018-07-12T17:15:29.272Z,100011.89
2018-07-12T17:17:57.035Z,100021.27
2018-07-12T17:20:24.966Z,100013.51
2018-07-12T17:22:52.727Z,100017.34
2018-07-12T17:25:20.378Z,100017.56
2018-07-12T17:27:48.102Z,100015.39
2018-07-12T17:30:15.766Z,100019.69
2018-07-12T17:32:43.385Z,100023.20
2018-07-12T17:35:11.102Z,100021.62
2018-07-12T17:37:38.853Z,100026.19
2018-07-12T17:40:06.559Z,100019.73
2018-07-12T17:42:34.246Z,100025.39
2018-07-12T17:45:01.866Z,100024.30
2018-07-12T17:47:29.545Z,100025.92
2018-07-12T17:49:57.226Z,100023.50
2018-07-12T17:52:26.030Z,100030.25
2018-07-12T17:54:53.894Z,100024.08
2018-07-12T17:57:21.536Z,100026.78
2018-07-12T17:59:49.306Z,100029.48
2018-07-12T18:02:16.934Z,100030.02
2018-07-12T18:04:44.562Z,100031.08
2018-07-12T18:07:12.170Z,100032.14
2018-07-12T18:09:39.818Z,100031.88
2018-07-12T18:12:07.450Z,100033.21
2018-07-12T18:14:35.129Z,100028.91
2018-07-12T18:17:02.741Z,100038.31
2018-07-12T18:19:30.460Z,100028.36
2018-07-12T18:21:58.252Z,100027.03
2018-07-12T18:24:26.263Z,100039.91
2018-07-12T18:26:53.993Z,100032.34
2018-07-12T18:29:21.601Z,100035.25
2018-07-12T18:31:49.304Z,100039.00
2018-07-12T18:34:16.962Z,100040.05
2018-07-12T18:36:44.567Z,100039.23
2018-07-12T18:39:12.337Z,100040.57
2018-07-12T18:41:39.965Z,100040.55
2018-07-12T18:44:07.685Z,100040.28
2018-07-12T18:46:35.314Z,100042.12
2018-07-12T18:49:03.020Z,100042.13
2018-07-12T18:51:30.697Z,100044.75
2018-07-12T18:53:58.293Z,100051.42
2018-07-12T18:56:26.150Z,100051.35
2018-07-12T18:58:53.777Z,100052.96
2018-07-12T19:01:21.507Z,100052.12
2018-07-12T19:03:49.094Z,100049.38
2018-07-12T19:06:16.724Z,100060.31
2018-07-12T19:08:44.656Z,100059.23
2018-07-12T19:11:12.318Z,100059.72
2018-07-12T19:13:39.909Z,100062.35
2018-07-12T19:16:07.646Z,100075.91
2018-07-12T19:18:35.394Z,100073.98
2018-07-12T19:21:03.012Z,100078.80
2018-07-12T19:23:30.738Z,100076.05
2018-07-12T19:25:58.350Z,100074.63
2018-07-12T19:28:26.102Z,100074.30
2018-07-12T19:30:53.792Z,100084.95
2018-07-12T19:33:21.490Z,100089.42
2018-07-12T19:35:49.373Z,100088.52
2018-07-12T19:38:17.113Z,100095.44
2018-07-12T19:40:44.958Z,100095.91
2018-07-12T19:43:12.691Z,100098.23
2018-07-12T19:45:40.964Z,100094.69
2018-07-12T19:48:09.107Z,100102.61
2018-07-12T19:50:36.706Z,100108.73
2018-07-12T19:53:04.350Z,100110.00
2018-07-12T19:55:32.393Z,100103.75
2018-07-12T19:58:00.172Z,100114.65
2018-07-12T20:00:27.794Z,100119.67
2018-07-12T20:02:55.431Z,100115.02
2018-07-12T20:05:23.041Z,100125.09
2018-07-12T20:07:50.674Z,100119.92
2018-07-12T20:10:34.465Z,100127.38
2018-07-12T20:13:02.091Z,100126.75
2018-07-12T20:15:29.844Z,100126.42
2018-07-12T20:18:09.703Z,100127.17
2018-07-12T20:20:37.467Z,100131.66
2018-07-12T20:23:05.152Z,100133.52
2018-07-12T20:25:32.787Z,100131.52
2018-07-12T20:28:00.435Z,100131.52
2018-07-12T20:30:28.197Z,100133.88
2018-07-12T20:32:55.830Z,100138.86
2018-07-12T20:35:23.522Z,100135.31
2018-07-12T20:37:51.205Z,100137.41
2018-07-12T20:40:18.856Z,100138.90
2018-07-12T20:42:47.026Z,100146.81
2018-07-12T20:45:14.673Z,100142.72
2018-07-12T20:47:42.309Z,100147.00
2018-07-12T20:50:10.010Z,100145.88
2018-07-12T20:52:37.717Z,100146.22
2018-07-12T20:55:05.526Z,100146.94
2018-07-12T20:57:33.351Z,100146.62
2018-07-12T21:00:01.053Z,100150.80
2018-07-12T21:02:28.650Z,100146.48
2018-07-12T21:04:57.055Z,100149.68
2018-07-12T21:07:26.670Z,100152.00
2018-07-12T21:09:54.483Z,100150.78
2018-07-12T21:12:22.162Z,100154.12
2018-07-12T21:14:50.714Z,100155.13
2018-07-12T21:17:18.334Z,100151.59
2018-07-12T21:19:47.008Z,100154.16
2018-07-12T21:22:14.634Z,100159.69
2018-07-12T21:24:42.222Z,100156.36
2018-07-12T21:27:09.847Z,100154.80
2018-07-12T21:29:37.601Z,100158.20
2018-07-12T21:32:05.382Z,100166.73
2018-07-12T21:34:33.182Z,100168.64
2018-07-12T21:37:00.781Z,100170.49
2018-07-12T21:39:29.033Z,100170.17
2018-07-12T21:41:56.621Z,100173.73
2018-07-12T21:44:24.275Z,100166.78
2018-07-12T21:46:52.662Z,100173.84
2018-07-12T21:49:20.261Z,100176.67
2018-07-12T21:51:47.927Z,100175.13
2018-07-12T21:54:15.509Z,100182.80
2018-07-12T21:56:43.161Z,100183.61
2018-07-12T21:59:10.741Z,100182.13
2018-07-12T22:01:38.363Z,100185.50
2018-07-12T22:04:06.053Z,100186.92
2018-07-12T22:07:00.917Z,100185.50
2018-07-12T22:09:28.502Z,100186.17
2018-07-12T22:11:56.201Z,100188.77
2018-07-12T22:14:23.746Z,100191.31
2018-07-12T22:16:51.371Z,100185.56
2018-07-12T22:19:19.022Z,100188.53
2018-07-12T22:21:46.729Z,100179.69
2018-07-12T22:24:14.345Z,100191.05
2018-07-12T22:26:41.929Z,100190.27
2018-07-12T22:29:09.601Z,100189.84
2018-07-12T22:31:37.250Z,100188.58
2018-07-12T22:34:05.194Z,100191.02
2018-07-12T22:36:32.891Z,100193.52
2018-07-12T22:39:00.542Z,100192.50
2018-07-12T22:41:28.198Z,100188.80
2018-07-12T22:43:55.890Z,100193.37
2018-07-12T22:46:23.494Z,100194.94
2018-07-12T22:48:51.233Z,100187.48
2018-07-12T22:51:18.845Z,100191.75
2018-07-12T22:53:46.523Z,100193.22
2018-07-12T22:56:14.165Z,100187.55
2018-07-12T22:58:41.710Z,100185.50
2018-07-12T23:01:09.334Z,100193.03
2018-07-12T23:03:36.987Z,100190.95
2018-07-12T23:06:04.685Z,100191.67
2018-07-12T23:08:32.408Z,100186.75
2018-07-12T23:11:00.069Z,100186.58
2018-07-12T23:13:27.750Z,100191.92
2018-07-12T23:15:55.354Z,100188.58
2018-07-12T23:18:22.951Z,100175.45
2018-07-12T23:20:50.645Z,100179.56
2018-07-12T23:23:18.301Z,100182.02
2018-07-12T23:25:45.938Z,100177.42
2018-07-12T23:28:13.563Z,100181.86
2018-07-12T23:30:41.214Z,100176.97
2018-07-12T23:33:08.931Z,100179.34
2018-07-12T23:35:36.559Z,100179.64
2018-07-12T23:38:04.207Z,100186.03
2018-07-12T23:40:31.918Z,100182.20
2018-07-12T23:43:00.914Z,100184.19
2018-07-12T23:45:28.767Z,100179.86
2018-07-12T23:47:56.318Z,100183.67
2018-07-12T23:50:23.942Z,100183.13
2018-07-12T23:52:51.517Z,100185.47
2018-07-12T23:55:19.199Z,100177.99
2018-07-12T23:57:46.871Z,100181.55
